createdAt,value
2023-04-09T00:00:58.202Z,0.00
2023-04-09T00:01:58.615Z,0.00
2023-04-09T00:02:58.317Z,0.00
2023-04-09T00:03:58.650Z,0.00
2023-04-09T00:04:58.148Z,0.00
2023-04-09T00:05:58.654Z,0.00
2023-04-09T00:06:59.926Z,0.00
2023-04-09T00:07:59.627Z,0.00
2023-04-09T00:08:59.909Z,0.00
2023-04-09T00:10:00.094Z,0.00
2023-04-09T00:11:00.045Z,0.00
2023-04-09T00:12:00.072Z,0.00
2023-04-09T00:12:59.742Z,0.00
2023-04-09T00:14:00.035Z,0.00
2023-04-09T00:14:59.838Z,0.00
2023-04-09T00:16:00.839Z,0.00
2023-04-09T00:17:00.216Z,0.00
2023-04-09T00:18:01.039Z,0.00
2023-04-09T00:18:59.932Z,0.00
2023-04-09T00:20:01.500Z,0.00
2023-04-09T00:21:00.473Z,0.00
2023-04-09T00:22:00.867Z,0.00
2023-04-09T00:23:04.450Z,0.00
2023-04-09T00:24:01.245Z,0.00
2023-04-09T00:24:59.647Z,0.00
2023-04-09T00:26:00.096Z,0.00
2023-04-09T00:26:59.806Z,0.00
2023-04-09T00:27:59.421Z,0.00
2023-04-09T00:28:59.733Z,0.00
2023-04-09T00:30:00.076Z,0.00
2023-04-09T00:31:00.219Z,0.00
2023-04-09T00:32:00.497Z,0.00
2023-04-09T00:32:59.973Z,0.00
2023-04-09T00:33:59.421Z,0.00
2023-04-09T00:35:00.443Z,0.00
2023-04-09T00:35:59.952Z,0.00
2023-04-09T00:36:59.932Z,0.00
2023-04-09T00:37:59.402Z,0.00
2023-04-09T00:39:00.795Z,0.00
2023-04-09T00:40:00.205Z,0.00
2023-04-09T00:40:59.746Z,0.00
2023-04-09T00:42:00.273Z,0.00
2023-04-09T00:42:59.323Z,0.00
2023-04-09T00:43:59.505Z,0.00
2023-04-09T00:44:59.309Z,0.00
2023-04-09T00:45:59.611Z,0.00
2023-04-09T00:46:59.585Z,0.00
2023-04-09T00:47:59.773Z,0.00
2023-04-09T00:48:59.059Z,0.00
2023-04-09T00:50:00.816Z,0.00
2023-04-09T00:50:59.199Z,0.00
2023-04-09T00:51:59.289Z,0.00
2023-04-09T00:52:59.758Z,0.00
2023-04-09T00:53:59.341Z,0.00
2023-04-09T00:55:00.404Z,0.00
2023-04-09T00:56:00.516Z,0.00
2023-04-09T00:56:59.815Z,0.00
2023-04-09T00:57:59.808Z,0.00
2023-04-09T00:58:59.567Z,0.00
2023-04-09T00:59:59.659Z,0.00
2023-04-09T01:00:59.358Z,0.00
2023-04-09T01:02:00.330Z,0.00
2023-04-09T01:02:59.816Z,0.00
2023-04-09T01:03:59.888Z,0.00
2023-04-09T01:04:59.424Z,0.00
2023-04-09T01:06:00.178Z,0.00
2023-04-09T01:07:00.050Z,0.00
2023-04-09T01:08:00.025Z,0.00
2023-04-09T01:08:59.512Z,0.00
2023-04-09T01:10:00.418Z,0.00
2023-04-09T01:10:59.529Z,0.00
2023-04-09T01:11:59.895Z,0.00
2023-04-09T01:12:59.494Z,0.00
2023-04-09T01:13:59.178Z,0.00
2023-04-09T01:15:01.072Z,0.00
2023-04-09T01:16:00.511Z,0.00
2023-04-09T01:16:59.990Z,0.00
2023-04-09T01:17:59.990Z,0.00
2023-04-09T01:19:00.036Z,0.00
2023-04-09T01:19:59.187Z,0.00
2023-04-09T01:20:59.163Z,0.00
2023-04-09T01:21:59.721Z,0.00
2023-04-09T01:22:59.244Z,0.00
2023-04-09T01:23:59.223Z,0.00
2023-04-09T01:24:58.992Z,0.00
2023-04-09T01:25:59.657Z,0.00
2023-04-09T01:26:59.849Z,0.00
2023-04-09T01:27:58.990Z,0.00
2023-04-09T01:28:59.268Z,0.00
2023-04-09T01:29:59.146Z,0.00
2023-04-09T01:30:59.218Z,0.00
2023-04-09T01:31:58.844Z,0.00
2023-04-09T01:32:58.856Z,0.00
2023-04-09T01:33:58.639Z,0.00
2023-04-09T01:34:58.976Z,0.00
2023-04-09T01:35:58.953Z,0.00
2023-04-09T01:36:59.021Z,0.00
2023-04-09T01:37:58.890Z,0.00
2023-04-09T01:38:58.967Z,0.00
2023-04-09T01:39:59.620Z,0.00
2023-04-09T01:40:59.738Z,0.00
2023-04-09T01:41:59.338Z,0.00
2023-04-09T01:42:59.440Z,0.00
2023-04-09T01:43:59.051Z,0.00
2023-04-09T01:44:58.993Z,0.00
2023-04-09T01:45:59.261Z,0.00
2023-04-09T01:46:59.871Z,0.00
2023-04-09T01:47:59.314Z,0.00
2023-04-09T01:49:00.424Z,0.00
2023-04-09T01:50:00.347Z,0.00
2023-04-09T01:50:59.216Z,0.00
2023-04-09T01:51:58.554Z,0.00
2023-04-09T01:52:59.659Z,0.00
2023-04-09T01:53:58.538Z,0.00
2023-04-09T01:54:58.977Z,0.00
2023-04-09T01:55:58.998Z,0.00
2023-04-09T01:56:58.578Z,0.00
2023-04-09T01:57:58.789Z,0.00
2023-04-09T01:58:58.710Z,0.00
2023-04-09T01:59:59.213Z,0.00
2023-04-09T02:00:59.202Z,0.00
2023-04-09T02:01:59.999Z,0.00
2023-04-09T02:02:59.611Z,0.00
2023-04-09T02:03:59.324Z,0.00
2023-04-09T02:04:59.342Z,0.00
2023-04-09T02:05:59.178Z,0.00
2023-04-09T02:06:59.052Z,0.00
2023-04-09T02:07:59.150Z,0.00
2023-04-09T02:08:59.616Z,0.00
2023-04-09T02:10:00.702Z,0.00
2023-04-09T02:10:59.093Z,0.00
2023-04-09T02:11:59.831Z,0.00
2023-04-09T02:12:58.924Z,0.00
2023-04-09T02:13:59.928Z,0.00
2023-04-09T02:14:59.299Z,0.00
2023-04-09T02:15:58.836Z,0.00
2023-04-09T02:17:03.086Z,0.00
2023-04-09T02:18:02.142Z,0.00
2023-04-09T02:19:00.313Z,0.00
2023-04-09T02:19:59.152Z,0.00
2023-04-09T02:20:59.256Z,0.00
2023-04-09T02:21:58.761Z,0.00
2023-04-09T02:22:59.977Z,0.00
2023-04-09T02:23:59.208Z,0.00
2023-04-09T02:24:58.410Z,0.00
2023-04-09T02:25:59.694Z,0.00
2023-04-09T02:26:58.468Z,0.00
2023-04-09T02:28:02.886Z,0.00
2023-04-09T02:28:58.987Z,0.00
2023-04-09T02:29:59.114Z,0.00
2023-04-09T02:30:59.103Z,0.00
2023-04-09T02:31:58.724Z,0.00
2023-04-09T02:32:58.246Z,0.00
2023-04-09T02:33:58.634Z,0.00
2023-04-09T02:35:01.389Z,0.00
2023-04-09T02:36:00.221Z,0.00
2023-04-09T02:36:59.454Z,0.00
2023-04-09T02:38:01.397Z,0.00
2023-04-09T02:38:59.665Z,0.00
2023-04-09T02:39:58.937Z,0.00
2023-04-09T02:40:59.656Z,0.00
2023-04-09T02:41:59.175Z,0.00
2023-04-09T02:43:00.314Z,0.00
2023-04-09T02:43:58.978Z,0.00
2023-04-09T02:44:58.761Z,0.00
2023-04-09T02:45:58.361Z,0.00
2023-04-09T02:46:58.500Z,0.00
2023-04-09T02:47:59.126Z,0.00
2023-04-09T02:48:58.383Z,0.00
2023-04-09T02:49:58.566Z,0.00
2023-04-09T02:50:58.430Z,0.00
2023-04-09T02:51:58.920Z,0.00
2023-04-09T02:52:58.210Z,0.00
2023-04-09T02:53:58.688Z,0.00
2023-04-09T02:54:58.577Z,0.00
2023-04-09T02:55:57.824Z,0.00
2023-04-09T02:56:58.258Z,0.00
2023-04-09T02:57:57.995Z,0.00
2023-04-09T02:58:58.384Z,0.00
2023-04-09T02:59:58.218Z,0.00
2023-04-09T03:00:58.039Z,0.00
2023-04-09T03:01:58.355Z,0.00
2023-04-09T03:02:58.198Z,0.00
2023-04-09T03:03:58.836Z,0.00
2023-04-09T03:04:57.924Z,0.00
2023-04-09T03:05:57.573Z,0.00
2023-04-09T03:06:57.690Z,0.00
2023-04-09T03:07:58.892Z,0.00
2023-04-09T03:08:57.535Z,0.00
2023-04-09T03:09:57.821Z,0.00
2023-04-09T03:10:59.806Z,0.00
2023-04-09T03:11:58.705Z,0.00
2023-04-09T03:12:57.663Z,0.00
2023-04-09T03:13:58.733Z,0.00
2023-04-09T03:14:58.143Z,0.00
2023-04-09T03:15:57.872Z,0.00
2023-04-09T03:16:57.935Z,0.00
2023-04-09T03:17:57.618Z,0.00
2023-04-09T03:18:57.987Z,0.00
2023-04-09T03:19:57.395Z,0.00
2023-04-09T03:20:57.819Z,0.00
2023-04-09T03:21:58.397Z,0.00
2023-04-09T03:22:58.348Z,0.00
2023-04-09T03:23:58.339Z,0.00
2023-04-09T03:24:57.804Z,0.00
2023-04-09T03:26:00.136Z,0.00
2023-04-09T03:26:58.758Z,0.00
2023-04-09T03:27:58.185Z,0.00
2023-04-09T03:28:58.318Z,0.00
2023-04-09T03:29:59.328Z,0.00
2023-04-09T03:30:59.526Z,0.00
2023-04-09T03:31:59.019Z,0.00
2023-04-09T03:32:59.993Z,0.00
2023-04-09T03:33:59.154Z,0.00
2023-04-09T03:34:58.819Z,0.00
2023-04-09T03:36:00.496Z,0.00
2023-04-09T03:36:58.867Z,0.00
2023-04-09T03:37:59.798Z,0.00
2023-04-09T03:39:00.532Z,0.00
2023-04-09T03:40:00.289Z,0.00
2023-04-09T03:41:20.964Z,0.00
2023-04-09T03:42:02.032Z,0.00
2023-04-09T03:42:58.586Z,0.00
2023-04-09T03:44:55.602Z,0.00
2023-04-09T03:45:14.601Z,0.00
2023-04-09T03:46:04.206Z,0.00
2023-04-09T03:47:06.276Z,0.00
2023-04-09T03:48:04.696Z,0.00
2023-04-09T03:49:03.555Z,0.00
2023-04-09T03:50:02.585Z,0.00
2023-04-09T03:51:03.801Z,0.00
2023-04-09T03:52:03.148Z,0.00
2023-04-09T03:53:02.483Z,0.00
2023-04-09T03:54:02.574Z,0.00
2023-04-09T03:55:02.837Z,0.00
2023-04-09T03:56:01.991Z,0.00
2023-04-09T03:57:02.013Z,0.00
2023-04-09T03:58:02.433Z,0.00
2023-04-09T03:59:02.184Z,0.00
2023-04-09T04:00:01.695Z,0.00
2023-04-09T04:01:02.321Z,0.00
2023-04-09T04:02:01.882Z,0.00
2023-04-09T04:03:02.298Z,0.00
2023-04-09T04:04:01.610Z,0.00
2023-04-09T04:05:01.696Z,0.00
2023-04-09T04:06:01.897Z,0.00
2023-04-09T04:07:01.864Z,0.00
2023-04-09T04:08:01.726Z,0.00
2023-04-09T04:09:01.537Z,0.00
2023-04-09T04:10:02.352Z,0.00
2023-04-09T04:11:01.911Z,0.00
2023-04-09T04:12:01.610Z,0.00
2023-04-09T04:13:01.819Z,0.00
2023-04-09T04:14:02.633Z,0.00
2023-04-09T04:15:02.342Z,0.00
2023-04-09T04:16:01.122Z,0.00
2023-04-09T04:17:01.116Z,0.00
2023-04-09T04:18:01.110Z,0.00
2023-04-09T04:19:01.093Z,0.00
2023-04-09T04:20:01.050Z,0.00
2023-04-09T04:21:01.030Z,0.00
2023-04-09T04:22:01.104Z,0.00
2023-04-09T04:23:01.054Z,0.00
2023-04-09T04:24:01.039Z,0.00
2023-04-09T04:25:01.021Z,0.00
2023-04-09T04:26:01.781Z,0.00
2023-04-09T04:27:01.012Z,0.00
2023-04-09T04:28:00.985Z,0.00
2023-04-09T04:29:00.990Z,0.00
2023-04-09T04:30:00.958Z,0.00
2023-04-09T04:31:00.971Z,0.00
2023-04-09T04:32:00.965Z,0.00
2023-04-09T04:33:00.942Z,0.00
2023-04-09T04:34:00.906Z,0.00
2023-04-09T04:35:00.867Z,0.00
2023-04-09T04:36:00.921Z,0.00
2023-04-09T04:37:00.889Z,0.00
2023-04-09T04:38:00.897Z,0.00
2023-04-09T04:39:00.839Z,0.00
2023-04-09T04:40:00.855Z,0.00
2023-04-09T04:41:00.847Z,0.00
2023-04-09T04:42:00.855Z,0.00
2023-04-09T04:43:00.820Z,0.00
2023-04-09T04:44:00.842Z,0.00
2023-04-09T04:45:00.867Z,0.00
2023-04-09T04:46:00.820Z,0.00
2023-04-09T04:47:00.800Z,0.00
2023-04-09T04:48:00.838Z,0.00
2023-04-09T04:49:00.844Z,0.00
2023-04-09T04:50:00.748Z,0.00
2023-04-09T04:51:00.712Z,0.00
2023-04-09T04:52:00.745Z,0.00
2023-04-09T04:53:00.742Z,0.00
2023-04-09T04:54:01.241Z,0.00
2023-04-09T04:55:00.730Z,5.62
2023-04-09T04:56:00.659Z,5.62
2023-04-09T04:57:00.682Z,5.62
2023-04-09T04:58:00.673Z,5.62
2023-04-09T04:59:00.651Z,5.62
2023-04-09T05:00:00.665Z,5.62
2023-04-09T05:01:01.271Z,5.62
2023-04-09T05:02:00.740Z,5.62
2023-04-09T05:03:00.707Z,5.62
2023-04-09T05:04:00.606Z,5.62
2023-04-09T05:05:00.625Z,5.62
2023-04-09T05:06:00.578Z,5.62
2023-04-09T05:07:00.616Z,5.62
2023-04-09T05:08:00.570Z,5.62
2023-04-09T05:09:00.571Z,11.25
2023-04-09T05:10:00.548Z,11.25
2023-04-09T05:11:00.535Z,11.25
2023-04-09T05:12:01.157Z,11.25
2023-04-09T05:13:00.483Z,11.25
2023-04-09T05:14:00.482Z,11.25
2023-04-09T05:15:00.483Z,11.25
2023-04-09T05:16:00.503Z,11.25
2023-04-09T05:17:00.636Z,11.25
2023-04-09T05:18:00.518Z,11.25
2023-04-09T05:19:01.361Z,16.88
2023-04-09T05:20:00.482Z,16.88
2023-04-09T05:21:00.484Z,16.88
2023-04-09T05:22:00.432Z,16.88
2023-04-09T05:23:00.405Z,16.88
2023-04-09T05:24:01.270Z,16.88
2023-04-09T05:25:00.395Z,16.88
2023-04-09T05:26:00.520Z,22.50
2023-04-09T05:27:00.411Z,22.50
2023-04-09T05:28:01.112Z,22.50
2023-04-09T05:29:00.320Z,22.50
2023-04-09T05:30:01.028Z,22.50
2023-04-09T05:31:01.378Z,22.50
2023-04-09T05:32:00.350Z,28.12
2023-04-09T05:33:00.356Z,28.12
2023-04-09T05:34:00.299Z,28.12
2023-04-09T05:35:00.327Z,28.12
2023-04-09T05:36:00.346Z,28.12
2023-04-09T05:37:00.433Z,28.12
2023-04-09T05:38:00.277Z,28.12
2023-04-09T05:39:00.273Z,33.75
2023-04-09T05:40:00.254Z,33.75
2023-04-09T05:41:00.256Z,33.75
2023-04-09T05:42:00.238Z,33.75
2023-04-09T05:43:00.201Z,33.75
2023-04-09T05:44:00.972Z,39.38
2023-04-09T05:45:01.206Z,39.38
2023-04-09T05:46:00.233Z,39.38
2023-04-09T05:47:00.181Z,39.38
2023-04-09T05:48:00.244Z,45.00
2023-04-09T05:49:00.248Z,45.00
2023-04-09T05:50:00.170Z,45.00
2023-04-09T05:51:01.042Z,50.62
2023-04-09T05:52:00.142Z,50.62
2023-04-09T05:53:00.129Z,50.62
2023-04-09T05:54:00.074Z,50.62
2023-04-09T05:55:00.090Z,56.25
2023-04-09T05:56:00.787Z,56.25
2023-04-09T05:57:00.090Z,56.25
2023-04-09T05:58:00.046Z,61.88
2023-04-09T05:59:00.045Z,61.88
2023-04-09T06:00:00.020Z,61.88
2023-04-09T06:01:00.039Z,61.88
2023-04-09T06:02:00.094Z,67.50
2023-04-09T06:03:00.146Z,67.50
2023-04-09T06:04:00.223Z,67.50
2023-04-09T06:05:00.251Z,73.12
2023-04-09T06:05:59.960Z,73.12
2023-04-09T06:06:59.963Z,73.12
2023-04-09T06:07:59.981Z,78.75
2023-04-09T06:08:59.972Z,78.75
2023-04-09T06:09:59.959Z,78.75
2023-04-09T06:10:59.900Z,78.75
2023-04-09T06:11:59.943Z,84.38
2023-04-09T06:12:59.897Z,84.38
2023-04-09T06:13:59.898Z,84.38
2023-04-09T06:14:59.909Z,84.38
2023-04-09T06:15:59.896Z,84.38
2023-04-09T06:16:59.973Z,84.38
2023-04-09T06:17:59.878Z,84.38
2023-04-09T06:32:43.350Z,106.88
2023-04-09T06:33:35.026Z,106.88
2023-04-09T06:34:34.020Z,112.50
2023-04-09T06:35:34.071Z,112.50
2023-04-09T06:36:35.137Z,118.12
2023-04-09T06:37:35.070Z,118.12
2023-04-09T06:38:35.089Z,118.12
2023-04-09T06:39:35.044Z,123.75
2023-04-09T06:40:35.036Z,123.75
2023-04-09T06:41:35.026Z,123.75
2023-04-09T06:42:35.025Z,129.38
2023-04-09T06:43:35.201Z,129.38
2023-04-09T06:44:34.978Z,129.38
2023-04-09T06:45:34.969Z,135.00
2023-04-09T06:46:34.985Z,135.00
2023-04-09T06:47:36.281Z,135.00
2023-04-09T06:48:34.958Z,140.62
2023-04-09T06:49:34.919Z,140.62
2023-04-09T06:50:35.549Z,140.62
2023-04-09T06:51:34.897Z,146.25
2023-04-09T06:52:34.923Z,146.25
2023-04-09T06:53:34.912Z,146.25
2023-04-09T06:54:35.858Z,146.25
2023-04-09T06:55:34.903Z,151.88
2023-04-09T06:56:34.838Z,151.88
2023-04-09T06:57:35.009Z,151.88
2023-04-09T06:58:34.844Z,151.88
2023-04-09T06:59:34.807Z,151.88
2023-04-09T07:00:34.816Z,157.50
2023-04-09T07:01:34.853Z,157.50
2023-04-09T07:02:34.945Z,157.50
2023-04-09T07:03:34.892Z,157.50
2023-04-09T07:04:34.922Z,163.12
2023-04-09T07:05:34.741Z,163.12
2023-04-09T07:06:34.749Z,163.12
2023-04-09T07:07:34.789Z,163.12
2023-04-09T07:08:34.749Z,163.12
2023-04-09T07:09:35.644Z,168.75
2023-04-09T07:10:34.737Z,168.75
2023-04-09T07:11:34.719Z,168.75
2023-04-09T07:12:34.747Z,174.38
2023-04-09T07:13:34.668Z,174.38
2023-04-09T07:14:34.668Z,174.38
2023-04-09T07:15:34.656Z,174.38
2023-04-09T07:16:34.808Z,174.38
2023-04-09T07:17:34.964Z,168.75
2023-04-09T07:18:34.636Z,168.75
2023-04-09T07:19:34.628Z,168.75
2023-04-09T07:20:34.653Z,168.75
2023-04-09T07:21:34.588Z,168.75
2023-04-09T07:22:34.598Z,163.12
2023-04-09T07:23:34.596Z,163.12
2023-04-09T07:24:34.581Z,163.12
2023-04-09T07:25:34.534Z,163.12
2023-04-09T07:26:34.521Z,168.75
2023-04-09T07:27:34.563Z,168.75
2023-04-09T07:28:34.520Z,174.38
2023-04-09T07:29:34.574Z,180.00
2023-04-09T07:30:34.525Z,191.25
2023-04-09T07:31:35.910Z,180.00
2023-04-09T07:32:35.514Z,185.62
2023-04-09T07:33:34.470Z,180.00
2023-04-09T07:34:34.457Z,208.12
2023-04-09T07:35:34.562Z,185.62
2023-04-09T07:36:34.502Z,185.62
2023-04-09T07:37:34.462Z,185.62
2023-04-09T07:38:34.459Z,191.25
2023-04-09T07:39:34.542Z,202.50
2023-04-09T07:40:34.432Z,196.88
2023-04-09T07:41:34.469Z,202.50
2023-04-09T07:42:34.427Z,208.12
2023-04-09T07:43:34.402Z,213.75
2023-04-09T07:44:34.375Z,225.00
2023-04-09T07:45:34.352Z,230.62
2023-04-09T07:46:35.171Z,225.00
2023-04-09T07:47:34.403Z,230.62
2023-04-09T07:48:34.340Z,236.25
2023-04-09T07:49:34.365Z,236.25
2023-04-09T07:50:34.316Z,241.88
2023-04-09T07:51:34.308Z,236.25
2023-04-09T07:52:34.322Z,236.25
2023-04-09T07:53:34.276Z,230.62
2023-04-09T07:54:34.277Z,225.00
2023-04-09T07:55:34.347Z,219.38
2023-04-09T07:56:34.268Z,219.38
2023-04-09T07:57:34.395Z,230.62
2023-04-09T07:58:34.208Z,225.00
2023-04-09T07:59:34.308Z,225.00
2023-04-09T08:00:34.259Z,219.38
2023-04-09T08:01:34.269Z,225.00
2023-04-09T08:02:34.274Z,230.62
2023-04-09T08:03:34.273Z,225.00
2023-04-09T08:04:35.176Z,225.00
2023-04-09T08:05:34.145Z,225.00
2023-04-09T08:06:34.150Z,219.38
2023-04-09T08:07:35.161Z,213.75
2023-04-09T08:08:34.145Z,208.12
2023-04-09T08:09:34.134Z,196.88
2023-04-09T08:10:34.125Z,196.88
2023-04-09T08:11:34.157Z,202.50
2023-04-09T08:12:34.071Z,208.12
2023-04-09T08:13:34.100Z,208.12
2023-04-09T08:14:34.059Z,213.75
2023-04-09T08:15:34.069Z,219.38
2023-04-09T08:16:34.060Z,225.00
2023-04-09T08:17:34.097Z,230.62
2023-04-09T08:18:34.098Z,225.00
2023-04-09T08:19:34.013Z,225.00
2023-04-09T08:20:34.064Z,219.38
2023-04-09T08:21:34.020Z,219.38
2023-04-09T08:22:34.002Z,219.38
2023-04-09T08:23:34.015Z,219.38
2023-04-09T08:24:34.927Z,219.38
2023-04-09T08:25:33.931Z,219.38
2023-04-09T08:26:33.974Z,219.38
2023-04-09T08:27:33.943Z,213.75
2023-04-09T08:28:33.970Z,213.75
2023-04-09T08:29:33.894Z,208.12
2023-04-09T08:30:33.906Z,208.12
2023-04-09T08:31:33.986Z,208.12
2023-04-09T08:32:33.997Z,208.12
2023-04-09T08:33:33.899Z,213.75
2023-04-09T08:34:33.892Z,225.00
2023-04-09T08:35:33.860Z,230.62
2023-04-09T08:36:34.805Z,230.62
2023-04-09T08:37:33.850Z,230.62
2023-04-09T08:38:33.872Z,230.62
2023-04-09T08:39:33.817Z,225.00
2023-04-09T08:40:33.826Z,219.38
2023-04-09T08:41:33.787Z,219.38
2023-04-09T08:42:34.786Z,219.38
2023-04-09T08:43:47.315Z,225.00
2023-04-09T08:44:35.762Z,225.00
2023-04-09T08:45:33.763Z,225.00
2023-04-09T08:46:33.782Z,230.62
2023-04-09T08:47:33.825Z,236.25
2023-04-09T08:48:33.885Z,241.88
2023-04-09T08:49:33.703Z,247.50
2023-04-09T08:50:34.544Z,258.75
2023-04-09T08:51:33.761Z,264.38
2023-04-09T08:52:33.705Z,264.38
2023-04-09T08:53:33.705Z,270.00
2023-04-09T08:54:33.704Z,275.62
2023-04-09T08:55:34.660Z,275.62
2023-04-09T08:56:33.657Z,275.62
2023-04-09T08:57:33.727Z,275.62
2023-04-09T08:58:33.656Z,281.25
2023-04-09T08:59:33.614Z,281.25
2023-04-09T09:00:33.653Z,281.25
2023-04-09T09:01:33.690Z,281.25
2023-04-09T09:02:33.746Z,281.25
2023-04-09T09:03:33.715Z,281.25
2023-04-09T09:04:33.547Z,286.88
2023-04-09T09:05:33.585Z,286.88
2023-04-09T09:06:33.791Z,292.50
2023-04-09T09:07:34.532Z,292.50
2023-04-09T09:08:33.529Z,292.50
2023-04-09T09:09:33.544Z,292.50
2023-04-09T09:10:33.477Z,292.50
2023-04-09T09:11:33.478Z,292.50
2023-04-09T09:12:33.487Z,298.12
2023-04-09T09:13:33.530Z,303.75
2023-04-09T09:14:33.446Z,309.38
2023-04-09T09:15:33.453Z,315.00
2023-04-09T09:16:33.471Z,320.62
2023-04-09T09:17:33.466Z,326.25
2023-04-09T09:18:33.436Z,326.25
2023-04-09T09:19:33.473Z,320.62
2023-04-09T09:20:33.419Z,315.00
2023-04-09T09:21:33.386Z,309.38
2023-04-09T09:22:33.361Z,309.38
2023-04-09T09:23:33.375Z,309.38
2023-04-09T09:24:33.352Z,309.38
2023-04-09T09:25:33.336Z,309.38
2023-04-09T09:26:33.322Z,309.38
2023-04-09T09:27:33.375Z,309.38
2023-04-09T09:28:33.322Z,309.38
2023-04-09T09:29:33.339Z,303.75
2023-04-09T09:30:33.353Z,298.12
2023-04-09T09:31:33.343Z,292.50
2023-04-09T09:32:33.373Z,281.25
2023-04-09T09:33:33.288Z,281.25
2023-04-09T09:34:33.462Z,281.25
2023-04-09T09:35:33.350Z,281.25
2023-04-09T09:36:33.317Z,275.62
2023-04-09T09:37:33.241Z,337.50
2023-04-09T09:38:33.225Z,298.12
2023-04-09T09:39:33.233Z,298.12
2023-04-09T09:40:33.227Z,270.00
2023-04-09T09:41:33.220Z,270.00
2023-04-09T09:42:33.169Z,264.38
2023-04-09T09:43:33.215Z,258.75
2023-04-09T09:44:33.284Z,258.75
2023-04-09T09:45:33.189Z,258.75
2023-04-09T09:46:33.165Z,264.38
2023-04-09T09:47:33.227Z,270.00
2023-04-09T09:48:33.143Z,275.62
2023-04-09T09:49:33.119Z,281.25
2023-04-09T09:50:33.099Z,286.88
2023-04-09T09:51:33.141Z,292.50
2023-04-09T09:52:33.041Z,292.50
2023-04-09T09:53:33.141Z,298.12
2023-04-09T09:54:33.120Z,303.75
2023-04-09T09:55:33.040Z,309.38
2023-04-09T09:56:33.129Z,315.00
2023-04-09T09:57:33.030Z,315.00
2023-04-09T09:58:33.055Z,320.62
2023-04-09T09:59:33.003Z,326.25
2023-04-09T10:00:33.024Z,326.25
2023-04-09T10:01:33.092Z,326.25
2023-04-09T10:02:33.077Z,326.25
2023-04-09T10:03:33.062Z,326.25
2023-04-09T10:04:32.991Z,320.62
2023-04-09T10:05:32.967Z,320.62
2023-04-09T10:06:32.943Z,315.00
2023-04-09T10:07:32.938Z,309.38
2023-04-09T10:08:32.936Z,303.75
2023-04-09T10:09:32.922Z,303.75
2023-04-09T10:10:32.891Z,298.12
2023-04-09T10:11:34.016Z,286.88
2023-04-09T10:12:32.887Z,292.50
2023-04-09T10:13:32.907Z,292.50
2023-04-09T10:14:32.886Z,292.50
2023-04-09T10:15:32.885Z,292.50
2023-04-09T10:16:32.841Z,286.88
2023-04-09T10:17:32.887Z,281.25
2023-04-09T10:18:32.848Z,281.25
2023-04-09T10:19:32.808Z,281.25
2023-04-09T10:20:32.816Z,281.25
2023-04-09T10:21:32.777Z,275.62
2023-04-09T10:22:32.828Z,275.62
2023-04-09T10:23:32.773Z,275.62
2023-04-09T10:24:32.727Z,270.00
2023-04-09T10:25:32.753Z,270.00
2023-04-09T10:26:32.761Z,264.38
2023-04-09T10:27:32.766Z,264.38
2023-04-09T10:28:33.735Z,258.75
2023-04-09T10:29:33.504Z,258.75
2023-04-09T10:30:32.713Z,253.12
2023-04-09T10:31:32.725Z,253.12
2023-04-09T10:32:32.696Z,253.12
2023-04-09T10:33:32.697Z,253.12
2023-04-09T10:34:32.724Z,253.12
2023-04-09T10:35:32.645Z,247.50
2023-04-09T10:36:32.676Z,247.50
2023-04-09T10:37:32.642Z,247.50
2023-04-09T10:38:32.644Z,241.88
2023-04-09T10:39:32.577Z,236.25
2023-04-09T10:40:32.610Z,225.00
2023-04-09T10:41:32.610Z,219.38
2023-04-09T10:42:32.572Z,213.75
2023-04-09T10:43:32.613Z,202.50
2023-04-09T10:44:32.528Z,196.88
2023-04-09T10:45:32.534Z,191.25
2023-04-09T10:46:32.565Z,185.62
2023-04-09T10:47:32.546Z,180.00
2023-04-09T10:48:32.566Z,174.38
2023-04-09T10:49:32.517Z,168.75
2023-04-09T10:50:32.518Z,168.75
2023-04-09T10:51:32.511Z,163.12
2023-04-09T10:52:32.482Z,163.12
2023-04-09T10:53:32.483Z,157.50
2023-04-09T10:54:32.445Z,157.50
2023-04-09T10:55:32.450Z,151.88
2023-04-09T10:56:32.463Z,151.88
2023-04-09T10:57:32.433Z,151.88
2023-04-09T10:58:32.447Z,151.88
2023-04-09T10:59:32.415Z,151.88
2023-04-09T11:00:32.443Z,151.88
2023-04-09T11:01:32.970Z,151.88
2023-04-09T11:02:32.528Z,151.88
2023-04-09T11:03:32.544Z,151.88
2023-04-09T11:04:32.368Z,151.88
2023-04-09T11:05:32.357Z,151.88
2023-04-09T11:06:33.177Z,151.88
2023-04-09T11:07:32.354Z,151.88
2023-04-09T11:08:32.368Z,151.88
2023-04-09T11:09:32.351Z,157.50
2023-04-09T11:10:32.299Z,157.50
2023-04-09T11:11:32.284Z,157.50
2023-04-09T11:12:32.339Z,163.12
2023-04-09T11:13:32.347Z,168.75
2023-04-09T11:14:32.287Z,174.38
2023-04-09T11:15:32.256Z,180.00
2023-04-09T11:16:32.223Z,191.25
2023-04-09T11:17:32.231Z,208.12
2023-04-09T11:18:32.243Z,219.38
2023-04-09T11:19:32.194Z,241.88
2023-04-09T11:20:32.194Z,264.38
2023-04-09T11:21:32.162Z,286.88
2023-04-09T11:22:32.270Z,303.75
2023-04-09T11:23:32.220Z,320.62
2023-04-09T11:24:32.160Z,337.50
2023-04-09T11:25:32.137Z,354.38
2023-04-09T11:26:32.152Z,360.00
2023-04-09T11:27:32.101Z,360.00
2023-04-09T11:28:32.143Z,360.00
2023-04-09T11:29:32.199Z,365.62
2023-04-09T11:30:33.070Z,365.62
2023-04-09T11:31:32.105Z,371.25
2023-04-09T11:32:32.185Z,376.88
2023-04-09T11:33:32.072Z,388.12
2023-04-09T11:34:32.052Z,405.00
2023-04-09T11:35:32.055Z,416.25
2023-04-09T11:36:32.069Z,433.12
2023-04-09T11:37:32.035Z,444.38
2023-04-09T11:38:32.030Z,472.50
2023-04-09T11:39:32.014Z,562.50
2023-04-09T11:40:32.043Z,607.50
2023-04-09T11:41:31.977Z,590.62
2023-04-09T11:42:31.977Z,489.38
2023-04-09T11:43:31.972Z,478.12
2023-04-09T11:44:31.937Z,461.25
2023-04-09T11:45:32.041Z,450.00
2023-04-09T11:46:31.949Z,444.38
2023-04-09T11:47:31.918Z,427.50
2023-04-09T11:48:31.963Z,433.12
2023-04-09T11:49:31.906Z,461.25
2023-04-09T11:50:31.899Z,421.88
2023-04-09T11:51:31.870Z,416.25
2023-04-09T11:52:32.709Z,421.88
2023-04-09T11:53:31.891Z,500.62
2023-04-09T11:54:31.900Z,421.88
2023-04-09T11:55:31.873Z,427.50
2023-04-09T11:56:31.810Z,433.12
2023-04-09T11:57:31.845Z,444.38
2023-04-09T11:58:31.849Z,455.62
2023-04-09T11:59:31.850Z,478.12
2023-04-09T12:00:31.809Z,489.38
2023-04-09T12:01:31.897Z,483.75
2023-04-09T12:02:31.869Z,472.50
2023-04-09T12:03:32.105Z,478.12
2023-04-09T12:04:31.888Z,495.00
2023-04-09T12:05:31.735Z,500.62
2023-04-09T12:06:31.728Z,517.50
2023-04-09T12:07:31.721Z,596.25
2023-04-09T12:08:31.770Z,495.00
2023-04-09T12:09:31.738Z,579.38
2023-04-09T12:10:31.695Z,495.00
2023-04-09T12:11:31.680Z,495.00
2023-04-09T12:12:31.689Z,478.12
2023-04-09T12:13:31.664Z,511.88
2023-04-09T12:14:31.653Z,433.12
2023-04-09T12:15:31.690Z,421.88
2023-04-09T12:16:31.644Z,421.88
2023-04-09T12:17:31.624Z,461.25
2023-04-09T12:18:31.625Z,421.88
2023-04-09T12:19:31.613Z,416.25
2023-04-09T12:20:31.578Z,410.62
2023-04-09T12:21:32.597Z,421.88
2023-04-09T12:22:31.601Z,399.38
2023-04-09T12:23:31.552Z,416.25
2023-04-09T12:24:31.580Z,438.75
2023-04-09T12:25:31.561Z,444.38
2023-04-09T12:26:31.555Z,455.62
2023-04-09T12:27:33.428Z,450.00
2023-04-09T12:28:31.537Z,438.75
2023-04-09T12:29:31.551Z,450.00
2023-04-09T12:30:31.508Z,438.75
2023-04-09T12:31:31.511Z,433.12
2023-04-09T12:32:31.506Z,433.12
2023-04-09T12:33:31.487Z,433.12
2023-04-09T12:34:31.475Z,455.62
2023-04-09T12:35:31.456Z,478.12
2023-04-09T12:36:31.476Z,489.38
2023-04-09T12:37:31.445Z,483.75
2023-04-09T12:38:31.426Z,500.62
2023-04-09T12:39:32.629Z,534.38
2023-04-09T12:40:31.404Z,517.50
2023-04-09T12:41:31.547Z,506.25
2023-04-09T12:42:31.362Z,618.75
2023-04-09T12:43:31.365Z,517.50
2023-04-09T12:44:31.348Z,495.00
2023-04-09T12:45:31.680Z,472.50
2023-04-09T12:46:32.824Z,466.88
2023-04-09T12:47:32.151Z,511.88
2023-04-09T12:48:31.312Z,495.00
2023-04-09T12:49:31.306Z,596.25
2023-04-09T12:50:31.311Z,624.38
2023-04-09T12:51:32.016Z,579.38
2023-04-09T12:52:31.279Z,511.88
2023-04-09T12:53:31.260Z,427.50
2023-04-09T12:54:31.264Z,438.75
2023-04-09T12:55:31.983Z,433.12
2023-04-09T12:56:31.231Z,433.12
2023-04-09T12:57:31.218Z,472.50
2023-04-09T12:58:32.194Z,585.00
2023-04-09T12:59:31.256Z,528.75
2023-04-09T13:00:31.355Z,590.62
2023-04-09T13:01:31.288Z,461.25
2023-04-09T13:02:31.290Z,506.25
2023-04-09T13:03:31.344Z,568.12